• Join FlightAware (Why Join?)
  • Login
  • US Flag 
05:49AM EDT


 

Airport Tracker/Info


-or-


 

Live Flight TrackerFlight Track Log ✈ UAL4180 ✈ 16-Jul-2013 ✈ KORD - CYWG

Flight Track Log - Related Links

Times and Time Zones

All times are in EDT time to prevent confusion due to time zone crossing. See the UAL4180 flight status page for this flight to view local times or setup timezone preferences in your user account.

Time Position Orientation Groundspeed Altitude Reporting Facility
EDT Latitude Longitude Course Direction KTS MPH feet Rate Location/Type
01:31PM 42.0333 -87.9500 346° North 196 226 3,300  Level Chicago TRACON
01:32PM 42.0833 -87.9833 334° Northwest 248 285 5,500 2,400 Climbing Chicago TRACON
01:33PM 42.1489 -88.0133 341° North 261 300 8,100 2,400 Climbing Chicago Center
01:34PM 42.3817 -88.0325 340° North  Level FlightAware Approximate
01:34PM 42.2236 -88.0275 352° North 277 319 10,300  Level Chicago Center
01:35PM 42.4857 -88.0638 352° North  Level FlightAware Approximate
01:35PM 42.3158 -88.0303 359° North 332 382 11,200  Level Chicago Center
01:36PM 42.5866 -88.1066 346° North  Level FlightAware Approximate
01:36PM 42.4319 -88.0339 359° North 364 419 12,800  Level Chicago Center
01:37PM 42.5375 -88.0550 352° North 381 438 14,300 1,440 Climbing Chicago Center
01:38PM 42.6408 -88.0969 343° North 386 444 15,800 1,380 Climbing Chicago Center
01:39PM 42.7436 -88.1375 344° North 385 443 17,200 1,200 Climbing Chicago Center
01:40PM 42.8467 -88.1781 344° North 385 443 18,400 1,380 Climbing Chicago Center
01:41PM 42.9675 -88.2278 343° North 387 445 20,100 1,500 Climbing Chicago Center
01:42PM 43.0700 -88.2722 342° North 386 444 21,500 1,380 Climbing Chicago Center
01:43PM 43.1733 -88.3161 343° North 389 448 23,000 1,440 Climbing Chicago Center
01:44PM 43.2753 -88.3603 342° North 385 443 24,500 1,380 Climbing Chicago Center
01:45PM 43.3781 -88.4031 343° North 385 443 25,900 1,500 Climbing Chicago Center
01:46PM 43.5050 -88.4633 341° North 402 463 27,600 1,500 Climbing Chicago Center
01:47PM 43.6036 -88.5083 342° North 404 465 29,000 1,320 Climbing Chicago Center
01:48PM 43.6911 -88.5961 324° Northwest 391 450 30,400 1,260 Climbing Chicago Center
01:49PM 43.7911 -88.7050 322° Northwest 393 452 31,700 1,140 Climbing Chicago Center
01:50PM 43.8800 -88.8022 322° Northwest 405 466 32,800 960 Climbing Chicago Center
01:52PM 43.9697 -88.8989 322° Northwest 408 470 33,800 960 Climbing Chicago Center
01:53PM 44.0614 -88.9989 322° Northwest 419 482 34,900 960 Climbing Chicago Center
01:54PM 44.1519 -89.0983 322° Northwest 416 479 35,900 540 Climbing Chicago Center
01:54PM 44.2433 -89.2022 321° Northwest 424 488 36,000  Climbing Minneapolis Center
01:55PM 44.3414 -89.3103 322° Northwest 444 511 36,000  Level Minneapolis Center
01:57PM 44.4411 -89.4231 321° Northwest 457 526 36,000  Level Minneapolis Center
01:58PM 44.5406 -89.5336 322° Northwest 458 527 36,000  Level Minneapolis Center
01:59PM 44.6386 -89.6425 322° Northwest 451 519 36,000  Level Minneapolis Center
02:00PM 44.7514 -89.7700 321° Northwest 447 514 36,000  Level Minneapolis Center
02:01PM 44.8447 -89.8747 322° Northwest 448 516 36,000  Level Minneapolis Center
02:02PM 44.9408 -89.9842 321° Northwest 444 511 36,000  Level Minneapolis Center
02:03PM 45.0375 -90.0950 321° Northwest 446 513 36,000  Level Minneapolis Center
02:04PM 45.1333 -90.2056 321° Northwest 444 511 36,000  Level Minneapolis Center
02:05PM 45.2492 -90.3367 321° Northwest 443 510 36,000  Level Minneapolis Center
02:06PM 45.3444 -90.4481 321° Northwest 442 509 36,000  Level Minneapolis Center
02:07PM 45.4403 -90.5594 321° Northwest 443 510 36,000  Level Minneapolis Center
02:08PM 45.5536 -90.6939 320° Northwest 441 507 36,000  Level Minneapolis Center
02:09PM 45.6511 -90.8061 321° Northwest 447 514 36,000  Level Minneapolis Center
02:10PM 45.7475 -90.9203 320° Northwest 449 517 36,000  Level Minneapolis Center
02:11PM 45.8436 -91.0358 320° Northwest 450 518 36,000  Level Minneapolis Center
02:12PM 45.9578 -91.1708 321° Northwest 445 512 36,000  Level Minneapolis Center
02:13PM 46.0536 -91.2858 320° Northwest 447 514 36,000  Level Minneapolis Center
02:14PM 46.1483 -91.4017 320° Northwest 445 512 36,000  Level Minneapolis Center
02:15PM 46.2450 -91.5156 321° Northwest 447 514 36,000  Level Minneapolis Center
02:16PM 46.3336 -91.6256 319° Northwest 450 518 36,000  Level Minneapolis Center
02:17PM 46.4481 -91.7622 321° Northwest 447 514 36,000  Level Minneapolis Center
02:18PM 46.5436 -91.8764 321° Northwest 447 514 36,000  Level Minneapolis Center
02:19PM 46.6386 -91.9911 320° Northwest 446 513 36,000  Level Minneapolis Center
02:21PM 46.7331 -92.1081 320° Northwest 446 513 36,000  Level Minneapolis Center
02:22PM 46.8275 -92.2228 320° Northwest 445 512 36,000  Level Minneapolis Center
02:23PM 46.9411 -92.3633 320° Northwest 447 514 36,000  Level Minneapolis Center
02:24PM 47.0358 -92.4803 320° Northwest 447 514 36,000  Level Minneapolis Center
02:25PM 47.1303 -92.5981 320° Northwest 448 516 36,000  Level Minneapolis Center
02:26PM 47.2244 -92.7164 320° Northwest 448 516 36,000  Level Minneapolis Center
02:27PM 47.3183 -92.8317 320° Northwest 446 513 36,000  Level Minneapolis Center
02:28PM 47.4264 -92.9644 320° Northwest 433 498 36,000  Level Minneapolis Center
02:29PM 47.5175 -93.0736 321° Northwest 437 503 36,000  Level Minneapolis Center
02:30PM 47.6175 -93.1597 330° Northwest 424 488 36,000  Level Minneapolis Center
02:31PM 47.7194 -93.2458 330° Northwest 423 487 36,000  Level Minneapolis Center
02:32PM 47.8414 -93.3481 331° Northwest 420 483 36,000  Level Minneapolis Center
02:33PM 47.9289 -93.4656 318° Northwest 428 493 36,000  Level Minneapolis Center
02:34PM 48.0153 -93.5842 317° Northwest 426 490 36,000  Level Minneapolis Center
02:35PM 48.1006 -93.7033 317° Northwest 424 488 36,000  Level Minneapolis Center
02:36PM 48.1867 -93.8258 317° Northwest 426 490 36,000  Level Minneapolis Center
02:37PM 48.2728 -93.9475 317° Northwest 427 491 36,000  Level Minneapolis Center
02:38PM 48.3744 -94.0933 316° Northwest 424 488 36,000 -60 Level Minneapolis Center
02:39PM 48.4422 -94.1892 317° Northwest 422 486 35,900  Descending Minneapolis Center
02:40PM 48.5433 -94.3339 317° Northwest 419 482 36,000  Climbing Minneapolis Center
02:41PM 48.6289 -94.4583 316° Northwest 425 489 36,000  Level Minneapolis Center
02:42PM 48.7147 -94.5831 316° Northwest 428 493 36,000  Level Minneapolis Center
02:43PM 48.8011 -94.7089 316° Northwest 431 496 36,000  Level Minneapolis Center
02:44PM 48.9058 -94.8600 317° Northwest 434 499 36,000 -180 Level Minneapolis Center
02:45PM 48.9500 -94.9333 313° West 430 495 35,700 -1,680 Descending Winnipeg Center
02:46PM 49.0500 -95.0500 323° Northwest 430 495 33,100 -2,700 Descending Winnipeg Center
02:47PM 49.1167 -95.1833 307° West 420 483 30,300 -2,400 Descending Winnipeg Center
02:48PM 49.2000 -95.3000 318° Northwest 410 472 28,400 -2,220 Descending Winnipeg Center
02:49PM 49.2667 -95.4333 307° West 400 460 25,900 -2,580 Descending Winnipeg Center
02:50PM 49.3333 -95.5833 304° West 410 472 23,300 -2,220 Descending Winnipeg Center
02:51PM 49.3833 -95.7333 297° West 400 460 21,500 -1,920 Descending Winnipeg Center
02:52PM 49.4500 -95.8667 308° West 390 449 19,500 -2,100 Descending Winnipeg Center
02:53PM 49.5000 -95.9833 303° West 370 426 17,300 -2,220 Descending Winnipeg Center
02:54PM 49.5500 -96.1167 300° West 360 414 15,100 -2,100 Descending Winnipeg Center
02:55PM 49.6167 -96.2500 308° West 350 403 13,200 -1,800 Descending Winnipeg Center
02:56PM 49.6667 -96.3667 304° West 340 391 11,600 -1,560 Descending Winnipeg Center
02:57PM 49.6833 -96.5000 281° West 280 322 10,100 -1,500 Descending Winnipeg Center
02:58PM 49.7000 -96.6000 284° West 250 288 8,600 -1,500 Descending Winnipeg Center
02:59PM 49.7000 -96.7000 270° West 220 253 7,100 -1,740 Descending Winnipeg Center
03:00PM 49.7167 -96.7833 287° West 220 253 5,200 -1,560 Descending Winnipeg Center
03:01PM 49.7333 -96.8833 284° West 220 253 4,000 -600 Descending Winnipeg Center
03:02PM 49.7667 -96.9667 302° West 220 253 4,000 -300 Level Winnipeg Center
03:03PM 49.8000 -97.0500 302° West 220 253 3,500 -780 Descending Winnipeg Center
03:04PM 49.8167 -97.1167 291° West 170 196 2,500 -900 Descending Winnipeg Center
03:05PM 49.8500 -97.1667 316° Northwest 140 161 1,700 -780 Descending Winnipeg Center
03:06PM 49.8667 -97.2000 308° West 130 150 1,000 -720 Descending Winnipeg Center